sensor_id;sensor_type;location;lat;lon;timestamp;pressure;altitude;pressure_sealevel;temperature;humidity
73457;BME280;61691;53.072;6.582;2023-07-31T00:01:43;100791.00;;;16.79;79.93
73457;BME280;61691;53.072;6.582;2023-07-31T00:04:10;100766.31;;;16.69;79.58
73457;BME280;61691;53.072;6.582;2023-07-31T00:06:37;100782.00;;;16.72;79.75
73457;BME280;61691;53.072;6.582;2023-07-31T00:09:04;100782.97;;;16.79;79.86
73457;BME280;61691;53.072;6.582;2023-07-31T00:11:31;100778.63;;;16.78;80.16
73457;BME280;61691;53.072;6.582;2023-07-31T00:13:58;100789.84;;;16.81;80.10
73457;BME280;61691;53.072;6.582;2023-07-31T00:16:25;100792.69;;;16.80;80.21
73457;BME280;61691;53.072;6.582;2023-07-31T00:18:52;100791.00;;;16.79;80.33
73457;BME280;61691;53.072;6.582;2023-07-31T00:21:19;100772.81;;;16.74;80.25
73457;BME280;61691;53.072;6.582;2023-07-31T00:23:45;100779.63;;;16.77;80.34
73457;BME280;61691;53.072;6.582;2023-07-31T00:26:12;100754.13;;;16.58;80.57
73457;BME280;61691;53.072;6.582;2023-07-31T00:28:39;100772.16;;;16.72;80.67
73457;BME280;61691;53.072;6.582;2023-07-31T00:31:05;100785.53;;;16.72;80.42
73457;BME280;61691;53.072;6.582;2023-07-31T00:33:34;100756.97;;;16.64;80.89
73457;BME280;61691;53.072;6.582;2023-07-31T00:36:01;100775.53;;;16.66;80.57
73457;BME280;61691;53.072;6.582;2023-07-31T00:38:28;100772.19;;;16.64;80.70
73457;BME280;61691;53.072;6.582;2023-07-31T00:40:54;100756.31;;;16.54;80.41
73457;BME280;61691;53.072;6.582;2023-07-31T00:43:21;100758.47;;;16.59;80.90
73457;BME280;61691;53.072;6.582;2023-07-31T00:45:48;100757.97;;;16.55;80.76
73457;BME280;61691;53.072;6.582;2023-07-31T00:48:15;100731.66;;;16.36;80.81
73457;BME280;61691;53.072;6.582;2023-07-31T00:50:42;100722.25;;;16.40;81.28
73457;BME280;61691;53.072;6.582;2023-07-31T00:53:08;100743.47;;;16.50;81.24
73457;BME280;61691;53.072;6.582;2023-07-31T00:55:35;100747.94;;;16.57;81.29
73457;BME280;61691;53.072;6.582;2023-07-31T00:58:02;100753.63;;;16.62;81.00
73457;BME280;61691;53.072;6.582;2023-07-31T01:00:29;100719.91;;;16.45;81.04
73457;BME280;61691;53.072;6.582;2023-07-31T01:02:55;100754.94;;;16.67;81.48
73457;BME280;61691;53.072;6.582;2023-07-31T01:10:54;100721.38;;;16.48;81.14
73457;BME280;61691;53.072;6.582;2023-07-31T01:13:23;100726.22;;;16.52;81.31
73457;BME280;61691;53.072;6.582;2023-07-31T01:15:49;100731.59;;;16.52;81.70
73457;BME280;61691;53.072;6.582;2023-07-31T01:18:16;100727.91;;;16.53;81.51
73457;BME280;61691;53.072;6.582;2023-07-31T01:20:47;100720.50;;;16.55;81.63
73457;BME280;61691;53.072;6.582;2023-07-31T01:23:46;100731.03;;;16.57;81.58
73457;BME280;61691;53.072;6.582;2023-07-31T01:26:28;100732.59;;;16.51;81.57
73457;BME280;61691;53.072;6.582;2023-07-31T01:28:59;100732.22;;;16.54;81.69
73457;BME280;61691;53.072;6.582;2023-07-31T01:31:29;100719.25;;;16.43;81.94
73457;BME280;61691;53.072;6.582;2023-07-31T01:34:00;100716.56;;;16.43;81.75
73457;BME280;61691;53.072;6.582;2023-07-31T01:36:27;100737.44;;;16.48;82.06
73457;BME280;61691;53.072;6.582;2023-07-31T01:39:01;100717.75;;;16.41;82.32
73457;BME280;61691;53.072;6.582;2023-07-31T01:41:28;100716.06;;;16.40;82.14
73457;BME280;61691;53.072;6.582;2023-07-31T01:43:55;100720.25;;;16.42;81.81
73457;BME280;61691;53.072;6.582;2023-07-31T01:46:22;100703.56;;;16.32;82.33
73457;BME280;61691;53.072;6.582;2023-07-31T01:48:49;100700.91;;;16.32;82.21
73457;BME280;61691;53.072;6.582;2023-07-31T01:51:15;100717.88;;;16.47;82.39
73457;BME280;61691;53.072;6.582;2023-07-31T01:53:42;100695.88;;;16.37;82.19
73457;BME280;61691;53.072;6.582;2023-07-31T01:56:09;100705.88;;;16.43;82.09
73457;BME280;61691;53.072;6.582;2023-07-31T01:58:36;100699.84;;;16.41;82.31
73457;BME280;61691;53.072;6.582;2023-07-31T02:01:02;100648.84;;;16.12;82.10
73457;BME280;61691;53.072;6.582;2023-07-31T02:03:29;100694.84;;;16.46;82.13
73457;BME280;61691;53.072;6.582;2023-07-31T02:05:56;100693.16;;;16.45;82.60
73457;BME280;61691;53.072;6.582;2023-07-31T02:08:23;100699.81;;;16.49;82.53
73457;BME280;61691;53.072;6.582;2023-07-31T02:10:50;100689.28;;;16.48;82.54
73457;BME280;61691;53.072;6.582;2023-07-31T02:13:16;100706.84;;;16.50;82.69
73457;BME280;61691;53.072;6.582;2023-07-31T02:15:45;100691.44;;;16.52;82.51
73457;BME280;61691;53.072;6.582;2023-07-31T02:18:11;100667.47;;;16.36;82.53
73457;BME280;61691;53.072;6.582;2023-07-31T02:20:38;100686.94;;;16.53;82.52
73457;BME280;61691;53.072;6.582;2023-07-31T02:23:05;100678.41;;;16.49;82.77
73457;BME280;61691;53.072;6.582;2023-07-31T02:25:31;100681.38;;;16.54;82.35
73457;BME280;61691;53.072;6.582;2023-07-31T02:27:58;100685.91;;;16.54;82.52
73457;BME280;61691;53.072;6.582;2023-07-31T02:30:25;100677.41;;;16.50;82.68
73457;BME280;61691;53.072;6.582;2023-07-31T02:32:51;100669.38;;;16.50;82.67
73457;BME280;61691;53.072;6.582;2023-07-31T02:35:18;100671.75;;;16.45;82.73
73457;BME280;61691;53.072;6.582;2023-07-31T02:37:45;100663.72;;;16.45;82.53
73457;BME280;61691;53.072;6.582;2023-07-31T02:40:12;100652.53;;;16.42;82.49
73457;BME280;61691;53.072;6.582;2023-07-31T02:42:39;100664.38;;;16.47;82.92
73457;BME280;61691;53.072;6.582;2023-07-31T02:45:06;100661.53;;;16.49;82.86
73457;BME280;61691;53.072;6.582;2023-07-31T02:47:33;100657.00;;;16.49;83.10
73457;BME280;61691;53.072;6.582;2023-07-31T02:50:00;100659.00;;;16.47;82.79
73457;BME280;61691;53.072;6.582;2023-07-31T02:52:27;100653.88;;;16.46;82.79
73457;BME280;61691;53.072;6.582;2023-07-31T02:54:53;100642.84;;;16.41;82.99
73457;BME280;61691;53.072;6.582;2023-07-31T02:57:20;100660.69;;;16.48;83.05
73457;BME280;61691;53.072;6.582;2023-07-31T02:59:47;100650.63;;;16.50;83.14
73457;BME280;61691;53.072;6.582;2023-07-31T03:02:13;100602.53;;;16.19;82.78
73457;BME280;61691;53.072;6.582;2023-07-31T03:04:40;100651.75;;;16.56;83.21
73457;BME280;61691;53.072;6.582;2023-07-31T03:07:07;100631.06;;;16.50;82.88
73457;BME280;61691;53.072;6.582;2023-07-31T03:09:34;100647.56;;;16.61;82.97
73457;BME280;61691;53.072;6.582;2023-07-31T03:12:00;100637.72;;;16.54;83.02
73457;BME280;61691;53.072;6.582;2023-07-31T03:14:27;100632.38;;;16.54;83.20
73457;BME280;61691;53.072;6.582;2023-07-31T03:16:54;100631.69;;;16.60;82.91
73457;BME280;61691;53.072;6.582;2023-07-31T03:19:21;100630.84;;;16.59;83.03
73457;BME280;61691;53.072;6.582;2023-07-31T03:21:48;100630.19;;;16.57;83.03
73457;BME280;61691;53.072;6.582;2023-07-31T03:24:14;100650.56;;;16.67;83.10
73457;BME280;61691;53.072;6.582;2023-07-31T03:26:41;100648.56;;;16.69;83.07
73457;BME280;61691;53.072;6.582;2023-07-31T03:29:08;100613.72;;;16.46;82.90
73457;BME280;61691;53.072;6.582;2023-07-31T03:31:35;100652.69;;;16.71;83.03
73457;BME280;61691;53.072;6.582;2023-07-31T03:34:02;100652.53;;;16.73;83.13
73457;BME280;61691;53.072;6.582;2023-07-31T03:36:28;100646.69;;;16.69;83.03
73457;BME280;61691;53.072;6.582;2023-07-31T03:38:55;100650.50;;;16.75;83.01
73457;BME280;61691;53.072;6.582;2023-07-31T03:41:22;100648.84;;;16.74;83.27
73457;BME280;61691;53.072;6.582;2023-07-31T03:43:50;100641.47;;;16.76;82.98
73457;BME280;61691;53.072;6.582;2023-07-31T03:46:23;100646.56;;;16.85;83.04
73457;BME280;61691;53.072;6.582;2023-07-31T03:48:50;100631.38;;;16.78;83.00
73457;BME280;61691;53.072;6.582;2023-07-31T03:51:17;100627.03;;;16.77;83.21
73457;BME280;61691;53.072;6.582;2023-07-31T03:53:44;100611.72;;;16.71;82.93
73457;BME280;61691;53.072;6.582;2023-07-31T03:56:11;100623.34;;;16.78;83.08
73457;BME280;61691;53.072;6.582;2023-07-31T03:58:37;100611.38;;;16.74;83.07
73457;BME280;61691;53.072;6.582;2023-07-31T04:01:04;100591.03;;;16.64;83.16
73457;BME280;61691;53.072;6.582;2023-07-31T04:03:31;100628.66;;;16.86;83.16
73457;BME280;61691;53.072;6.582;2023-07-31T04:05:58;100623.13;;;16.87;83.10
73457;BME280;61691;53.072;6.582;2023-07-31T04:08:24;100625.63;;;16.89;83.29
73457;BME280;61691;53.072;6.582;2023-07-31T04:10:51;100618.94;;;16.85;83.19
73457;BME280;61691;53.072;6.582;2023-07-31T04:13:18;100618.31;;;16.83;83.36
73457;BME280;61691;53.072;6.582;2023-07-31T04:15:51;100601.31;;;16.76;82.93
73457;BME280;61691;53.072;6.582;2023-07-31T04:18:17;100614.63;;;16.84;83.08
73457;BME280;61691;53.072;6.582;2023-07-31T04:20:44;100590.28;;;16.71;83.25
73457;BME280;61691;53.072;6.582;2023-07-31T04:23:11;100614.25;;;16.87;83.05
73457;BME280;61691;53.072;6.582;2023-07-31T04:25:38;100559.94;;;16.55;83.22
73457;BME280;61691;53.072;6.582;2023-07-31T04:28:05;100618.72;;;16.94;83.49
73457;BME280;61691;53.072;6.582;2023-07-31T04:30:31;100583.22;;;16.78;83.29
73457;BME280;61691;53.072;6.582;2023-07-31T04:32:58;100597.19;;;16.88;83.42
73457;BME280;61691;53.072;6.582;2023-07-31T04:35:25;100591.66;;;16.89;83.22
73457;BME280;61691;53.072;6.582;2023-07-31T04:37:52;100548.91;;;16.58;82.93
73457;BME280;61691;53.072;6.582;2023-07-31T04:40:20;100590.53;;;16.84;82.88
73457;BME280;61691;53.072;6.582;2023-07-31T04:42:47;100606.72;;;16.90;83.25
73457;BME280;61691;53.072;6.582;2023-07-31T04:45:14;100595.06;;;16.83;83.00
73457;BME280;61691;53.072;6.582;2023-07-31T04:47:40;100598.75;;;16.82;83.14
73457;BME280;61691;53.072;6.582;2023-07-31T04:50:07;100587.28;;;16.74;83.25
73457;BME280;61691;53.072;6.582;2023-07-31T04:52:34;100605.94;;;16.82;83.02
73457;BME280;61691;53.072;6.582;2023-07-31T04:55:01;100601.59;;;16.81;83.18
73457;BME280;61691;53.072;6.582;2023-07-31T04:57:28;100577.91;;;16.70;83.20
73457;BME280;61691;53.072;6.582;2023-07-31T04:59:54;100601.59;;;16.81;83.26
73457;BME280;61691;53.072;6.582;2023-07-31T05:02:21;100579.59;;;16.71;83.29
73457;BME280;61691;53.072;6.582;2023-07-31T05:04:48;100555.56;;;16.62;83.30
73457;BME280;61691;53.072;6.582;2023-07-31T05:07:15;100587.47;;;16.87;83.33
73457;BME280;61691;53.072;6.582;2023-07-31T05:09:42;100578.50;;;16.80;83.25
73457;BME280;61691;53.072;6.582;2023-07-31T05:12:08;100582.56;;;16.76;83.02
73457;BME280;61691;53.072;6.582;2023-07-31T05:14:35;100575.56;;;16.75;83.36
73457;BME280;61691;53.072;6.582;2023-07-31T05:17:02;100576.84;;;16.79;83.52
73457;BME280;61691;53.072;6.582;2023-07-31T05:19:29;100583.03;;;16.79;83.40
73457;BME280;61691;53.072;6.582;2023-07-31T05:21:55;100570.56;;;16.72;83.25
73457;BME280;61691;53.072;6.582;2023-07-31T05:24:22;100556.50;;;16.70;83.10
73457;BME280;61691;53.072;6.582;2023-07-31T05:26:49;100574.81;;;16.81;83.60
73457;BME280;61691;53.072;6.582;2023-07-31T05:29:15;100566.78;;;16.81;83.48
73457;BME280;61691;53.072;6.582;2023-07-31T05:31:43;100559.13;;;16.78;83.55
73457;BME280;61691;53.072;6.582;2023-07-31T05:34:09;100562.44;;;16.80;83.81
73457;BME280;61691;53.072;6.582;2023-07-31T05:36:36;100561.25;;;16.82;83.92
73457;BME280;61691;53.072;6.582;2023-07-31T05:39:03;100541.75;;;16.74;83.87
73457;BME280;61691;53.072;6.582;2023-07-31T05:41:34;100565.53;;;16.91;83.64
73457;BME280;61691;53.072;6.582;2023-07-31T05:44:01;100544.38;;;16.82;83.83
73457;BME280;61691;53.072;6.582;2023-07-31T05:46:28;100555.63;;;16.92;83.81
73457;BME280;61691;53.072;6.582;2023-07-31T05:48:55;100553.72;;;17.00;83.93
73457;BME280;61691;53.072;6.582;2023-07-31T05:51:22;100548.00;;;17.03;83.84
73457;BME280;61691;53.072;6.582;2023-07-31T05:53:49;100557.13;;;17.09;83.81
73457;BME280;61691;53.072;6.582;2023-07-31T05:56:15;100552.88;;;17.15;84.26
73457;BME280;61691;53.072;6.582;2023-07-31T05:58:42;100543.00;;;17.15;83.96
73457;BME280;61691;53.072;6.582;2023-07-31T06:01:09;100532.03;;;17.10;84.12
73457;BME280;61691;53.072;6.582;2023-07-31T06:03:36;100529.00;;;17.13;83.95
73457;BME280;61691;53.072;6.582;2023-07-31T06:06:02;100537.28;;;17.18;84.00
73457;BME280;61691;53.072;6.582;2023-07-31T06:08:29;100562.59;;;17.30;84.19
73457;BME280;61691;53.072;6.582;2023-07-31T06:10:56;100545.06;;;17.28;83.93
73457;BME280;61691;53.072;6.582;2023-07-31T06:13:23;100539.78;;;17.34;84.05
73457;BME280;61691;53.072;6.582;2023-07-31T06:15:49;100550.13;;;17.37;84.29
73457;BME280;61691;53.072;6.582;2023-07-31T06:18:17;100527.50;;;17.40;84.09
73457;BME280;61691;53.072;6.582;2023-07-31T06:20:44;100546.22;;;17.55;84.52
73457;BME280;61691;53.072;6.582;2023-07-31T06:23:10;100542.28;;;17.65;84.26
73457;BME280;61691;53.072;6.582;2023-07-31T06:25:37;100528.66;;;17.67;84.50
73457;BME280;61691;53.072;6.582;2023-07-31T06:28:04;100533.31;;;17.73;84.45
73457;BME280;61691;53.072;6.582;2023-07-31T06:30:30;100554.25;;;17.84;84.51
73457;BME280;61691;53.072;6.582;2023-07-31T06:32:57;100531.59;;;17.87;84.40
73457;BME280;61691;53.072;6.582;2023-07-31T06:35:24;100506.84;;;17.70;84.23
73457;BME280;61691;53.072;6.582;2023-07-31T06:37:51;100537.22;;;17.92;83.86
73457;BME280;61691;53.072;6.582;2023-07-31T06:40:17;100498.44;;;17.73;84.47
73457;BME280;61691;53.072;6.582;2023-07-31T06:42:45;100511.88;;;17.94;84.28
73457;BME280;61691;53.072;6.582;2023-07-31T06:45:12;100511.28;;;17.99;84.35
73457;BME280;61691;53.072;6.582;2023-07-31T06:47:39;100502.03;;;18.01;84.69
73457;BME280;61691;53.072;6.582;2023-07-31T06:50:06;100494.44;;;18.05;84.36
73457;BME280;61691;53.072;6.582;2023-07-31T06:52:33;100484.94;;;18.02;84.21
73457;BME280;61691;53.072;6.582;2023-07-31T06:55:17;100502.81;;;18.16;84.23
73457;BME280;61691;53.072;6.582;2023-07-31T06:57:47;100511.09;;;18.22;83.92
73457;BME280;61691;53.072;6.582;2023-07-31T07:00:14;100494.53;;;18.11;84.06
73457;BME280;61691;53.072;6.582;2023-07-31T07:02:41;100509.66;;;18.19;84.03
73457;BME280;61691;53.072;6.582;2023-07-31T07:05:08;100499.16;;;18.24;84.01
73457;BME280;61691;53.072;6.582;2023-07-31T07:07:35;100496.72;;;18.29;83.72
73457;BME280;61691;53.072;6.582;2023-07-31T07:10:03;100497.97;;;18.27;83.74
73457;BME280;61691;53.072;6.582;2023-07-31T07:12:31;100484.69;;;18.18;83.72
73457;BME280;61691;53.072;6.582;2023-07-31T07:14:57;100486.31;;;18.19;83.55
73457;BME280;61691;53.072;6.582;2023-07-31T07:17:25;100479.16;;;18.05;83.56
73457;BME280;61691;53.072;6.582;2023-07-31T07:19:52;100494.53;;;18.11;83.56
73457;BME280;61691;53.072;6.582;2023-07-31T07:22:19;100470.03;;;18.00;83.54
73457;BME280;61691;53.072;6.582;2023-07-31T07:24:46;100481.25;;;18.03;83.65
73457;BME280;61691;53.072;6.582;2023-07-31T07:27:12;100473.31;;;17.95;83.64
73457;BME280;61691;53.072;6.582;2023-07-31T07:29:39;100482.44;;;18.01;83.76
73457;BME280;61691;53.072;6.582;2023-07-31T07:32:06;100473.94;;;17.97;83.86
73457;BME280;61691;53.072;6.582;2023-07-31T07:34:33;100466.66;;;17.91;84.00
73457;BME280;61691;53.072;6.582;2023-07-31T07:36:59;100453.19;;;17.85;83.96
73457;BME280;61691;53.072;6.582;2023-07-31T07:39:26;100458.44;;;17.93;83.97
73457;BME280;61691;53.072;6.582;2023-07-31T07:41:53;100464.81;;;17.92;84.07
73457;BME280;61691;53.072;6.582;2023-07-31T07:44:20;100459.63;;;17.90;84.02
73457;BME280;61691;53.072;6.582;2023-07-31T07:46:47;100467.50;;;17.92;83.88
73457;BME280;61691;53.072;6.582;2023-07-31T07:49:14;100456.69;;;17.85;83.63
73457;BME280;61691;53.072;6.582;2023-07-31T07:51:40;100449.44;;;17.79;83.59
73457;BME280;61691;53.072;6.582;2023-07-31T07:54:07;100470.75;;;17.87;83.81
73457;BME280;61691;53.072;6.582;2023-07-31T07:56:34;100453.31;;;17.76;83.60
73457;BME280;61691;53.072;6.582;2023-07-31T07:59:03;100442.75;;;17.75;83.63
73457;BME280;61691;53.072;6.582;2023-07-31T08:01:30;100452.28;;;17.77;83.77
73457;BME280;61691;53.072;6.582;2023-07-31T08:03:57;100437.53;;;17.67;83.98
73457;BME280;61691;53.072;6.582;2023-07-31T08:06:24;100445.44;;;17.75;83.93
73457;BME280;61691;53.072;6.582;2023-07-31T08:08:51;100452.94;;;17.79;84.03
73457;BME280;61691;53.072;6.582;2023-07-31T08:11:18;100454.78;;;17.79;83.77
73457;BME280;61691;53.072;6.582;2023-07-31T08:13:44;100445.06;;;17.78;83.84
73457;BME280;61691;53.072;6.582;2023-07-31T08:16:11;100438.06;;;17.77;84.05
73457;BME280;61691;53.072;6.582;2023-07-31T08:18:38;100435.63;;;17.82;83.89
73457;BME280;61691;53.072;6.582;2023-07-31T08:21:07;100430.25;;;17.82;83.99
73457;BME280;61691;53.072;6.582;2023-07-31T08:23:33;100439.84;;;17.91;84.01
73457;BME280;61691;53.072;6.582;2023-07-31T08:26:01;100432.75;;;17.84;84.11
73457;BME280;61691;53.072;6.582;2023-07-31T08:28:28;100406.66;;;17.71;84.32
73457;BME280;61691;53.072;6.582;2023-07-31T08:30:55;100423.75;;;17.91;84.12
73457;BME280;61691;53.072;6.582;2023-07-31T08:33:22;100424.41;;;17.93;84.29
73457;BME280;61691;53.072;6.582;2023-07-31T08:35:49;100386.88;;;17.72;84.23
73457;BME280;61691;53.072;6.582;2023-07-31T08:38:16;100423.44;;;18.01;83.98
73457;BME280;61691;53.072;6.582;2023-07-31T08:40:43;100411.88;;;18.00;84.29
73457;BME280;61691;53.072;6.582;2023-07-31T08:43:09;100417.81;;;18.17;84.53
73457;BME280;61691;53.072;6.582;2023-07-31T08:45:36;100415.94;;;18.17;84.14
73457;BME280;61691;53.072;6.582;2023-07-31T08:48:03;100411.59;;;18.16;84.04
73457;BME280;61691;53.072;6.582;2023-07-31T08:50:30;100409.56;;;18.18;84.05
73457;BME280;61691;53.072;6.582;2023-07-31T08:52:57;100403.00;;;18.28;84.02
73457;BME280;61691;53.072;6.582;2023-07-31T08:55:24;100385.78;;;18.15;83.77
73457;BME280;61691;53.072;6.582;2023-07-31T08:57:52;100405.94;;;18.33;84.12
73457;BME280;61691;53.072;6.582;2023-07-31T09:00:20;100402.66;;;18.37;83.77
73457;BME280;61691;53.072;6.582;2023-07-31T09:02:54;100413.03;;;18.40;83.81
73457;BME280;61691;53.072;6.582;2023-07-31T09:05:23;100391.09;;;18.37;83.83
73457;BME280;61691;53.072;6.582;2023-07-31T09:07:51;100406.09;;;18.52;83.98
73457;BME280;61691;53.072;6.582;2023-07-31T09:10:17;100401.63;;;18.60;84.01
73457;BME280;61691;53.072;6.582;2023-07-31T09:12:45;100405.63;;;18.70;83.62
73457;BME280;61691;53.072;6.582;2023-07-31T09:15:13;100386.19;;;18.68;83.67
73457;BME280;61691;53.072;6.582;2023-07-31T09:18:00;100403.34;;;18.74;83.48
73457;BME280;61691;53.072;6.582;2023-07-31T09:20:28;100385.53;;;18.66;83.35
73457;BME280;61691;53.072;6.582;2023-07-31T09:22:55;100370.63;;;18.57;83.47
73457;BME280;61691;53.072;6.582;2023-07-31T09:25:24;100390.94;;;18.73;83.34
73457;BME280;61691;53.072;6.582;2023-07-31T09:27:58;100403.41;;;18.87;83.55
73457;BME280;61691;53.072;6.582;2023-07-31T09:30:26;100401.81;;;18.92;83.71
73457;BME280;61691;53.072;6.582;2023-07-31T09:33:06;100401.00;;;18.99;83.69
73457;BME280;61691;53.072;6.582;2023-07-31T09:35:34;100378.69;;;18.98;83.11
73457;BME280;61691;53.072;6.582;2023-07-31T09:38:13;100359.63;;;18.86;83.38
73457;BME280;61691;53.072;6.582;2023-07-31T09:40:46;100385.75;;;19.12;83.30
73457;BME280;61691;53.072;6.582;2023-07-31T09:43:19;100381.25;;;19.26;83.52
73457;BME280;61691;53.072;6.582;2023-07-31T09:45:47;100378.19;;;19.29;83.43
73457;BME280;61691;53.072;6.582;2023-07-31T09:48:16;100381.31;;;19.39;83.27
73457;BME280;61691;53.072;6.582;2023-07-31T09:50:48;100373.06;;;19.47;83.22
73457;BME280;61691;53.072;6.582;2023-07-31T09:53:16;100379.91;;;19.56;82.89
73457;BME280;61691;53.072;6.582;2023-07-31T09:55:43;100367.09;;;19.58;83.06
73457;BME280;61691;53.072;6.582;2023-07-31T09:58:11;100361.13;;;19.69;82.99
73457;BME280;61691;53.072;6.582;2023-07-31T10:00:38;100332.97;;;19.65;82.96
73457;BME280;61691;53.072;6.582;2023-07-31T10:03:10;100373.56;;;19.97;82.57
73457;BME280;61691;53.072;6.582;2023-07-31T10:05:43;100370.66;;;20.05;82.15
73457;BME280;61691;53.072;6.582;2023-07-31T10:08:13;100347.88;;;20.01;82.12
73457;BME280;61691;53.072;6.582;2023-07-31T10:10:43;100333.00;;;19.92;81.78
73457;BME280;61691;53.072;6.582;2023-07-31T10:13:11;100359.91;;;20.05;81.63
73457;BME280;61691;53.072;6.582;2023-07-31T10:15:38;100359.69;;;20.00;81.60
73457;BME280;61691;53.072;6.582;2023-07-31T10:18:08;100360.72;;;19.99;81.53
73457;BME280;61691;53.072;6.582;2023-07-31T10:20:35;100359.91;;;19.98;81.65
73457;BME280;61691;53.072;6.582;2023-07-31T10:23:03;100346.03;;;19.95;81.47
73457;BME280;61691;53.072;6.582;2023-07-31T10:25:30;100360.28;;;20.15;81.65
73457;BME280;61691;53.072;6.582;2023-07-31T10:27:58;100353.47;;;20.26;81.82
73457;BME280;61691;53.072;6.582;2023-07-31T10:30:28;100346.66;;;20.36;81.74
73457;BME280;61691;53.072;6.582;2023-07-31T10:32:57;100339.97;;;20.32;81.38
73457;BME280;61691;53.072;6.582;2023-07-31T10:35:24;100342.03;;;20.30;81.25
73457;BME280;61691;53.072;6.582;2023-07-31T10:37:51;100336.09;;;20.22;81.20
73457;BME280;61691;53.072;6.582;2023-07-31T10:40:23;100335.88;;;20.17;81.10
73457;BME280;61691;53.072;6.582;2023-07-31T10:42:52;100350.38;;;20.22;81.12
73457;BME280;61691;53.072;6.582;2023-07-31T10:45:39;100330.50;;;20.10;81.14
73457;BME280;61691;53.072;6.582;2023-07-31T10:48:15;100347.25;;;20.25;81.62
73457;BME280;61691;53.072;6.582;2023-07-31T10:50:51;100345.38;;;20.32;81.55
73457;BME280;61691;53.072;6.582;2023-07-31T10:53:26;100352.03;;;20.36;81.52
73457;BME280;61691;53.072;6.582;2023-07-31T10:55:58;100350.97;;;20.37;81.29
73457;BME280;61691;53.072;6.582;2023-07-31T10:58:25;100343.72;;;20.31;81.37
73457;BME280;61691;53.072;6.582;2023-07-31T11:00:57;100356.13;;;20.32;81.37
73457;BME280;61691;53.072;6.582;2023-07-31T11:03:26;100332.97;;;20.18;81.33
73457;BME280;61691;53.072;6.582;2023-07-31T11:06:03;100353.25;;;20.27;81.36
73457;BME280;61691;53.072;6.582;2023-07-31T11:08:32;100347.69;;;20.22;81.19
73457;BME280;61691;53.072;6.582;2023-07-31T11:13:33;100351.19;;;20.29;81.13
73457;BME280;61691;53.072;6.582;2023-07-31T11:16:00;100319.53;;;20.12;81.25
73457;BME280;61691;53.072;6.582;2023-07-31T11:18:27;100357.38;;;20.30;81.03
73457;BME280;61691;53.072;6.582;2023-07-31T11:20:54;100331.94;;;20.19;81.00
73457;BME280;61691;53.072;6.582;2023-07-31T11:23:21;100360.69;;;20.25;81.03
73457;BME280;61691;53.072;6.582;2023-07-31T11:25:50;100358.66;;;20.14;80.58
73457;BME280;61691;53.072;6.582;2023-07-31T11:28:18;100351.19;;;20.03;80.70
73457;BME280;61691;53.072;6.582;2023-07-31T11:30:46;100350.19;;;19.91;80.70
73457;BME280;61691;53.072;6.582;2023-07-31T11:33:14;100326.78;;;19.71;80.73
73457;BME280;61691;53.072;6.582;2023-07-31T11:35:49;100341.06;;;19.79;81.03
73457;BME280;61691;53.072;6.582;2023-07-31T11:38:27;100357.41;;;19.84;81.27
73457;BME280;61691;53.072;6.582;2023-07-31T11:40:57;100359.06;;;19.85;81.61
73457;BME280;61691;53.072;6.582;2023-07-31T11:43:24;100358.25;;;19.91;81.29
73457;BME280;61691;53.072;6.582;2023-07-31T11:45:53;100340.00;;;19.93;81.40
73457;BME280;61691;53.072;6.582;2023-07-31T11:48:28;100336.09;;;20.02;81.76
73457;BME280;61691;53.072;6.582;2023-07-31T11:51:01;100337.50;;;20.24;81.90
73457;BME280;61691;53.072;6.582;2023-07-31T11:53:54;100335.00;;;20.49;82.14
73457;BME280;61691;53.072;6.582;2023-07-31T11:56:23;100330.59;;;20.68;81.86
73457;BME280;61691;53.072;6.582;2023-07-31T11:58:59;100336.75;;;20.88;81.80
73457;BME280;61691;53.072;6.582;2023-07-31T12:01:28;100322.78;;;21.04;81.44
73457;BME280;61691;53.072;6.582;2023-07-31T12:03:55;100326.22;;;21.24;81.42
73457;BME280;61691;53.072;6.582;2023-07-31T12:06:35;100309.31;;;21.42;81.39
73457;BME280;61691;53.072;6.582;2023-07-31T12:09:04;100329.03;;;21.68;80.89
73457;BME280;61691;53.072;6.582;2023-07-31T12:11:42;100326.47;;;21.79;80.75
73457;BME280;61691;53.072;6.582;2023-07-31T12:14:19;100300.34;;;21.73;80.15
73457;BME280;61691;53.072;6.582;2023-07-31T12:16:46;100303.59;;;21.82;80.04
73457;BME280;61691;53.072;6.582;2023-07-31T12:19:13;100325.53;;;21.92;79.52
73457;BME280;61691;53.072;6.582;2023-07-31T12:21:40;100313.75;;;21.86;79.30
73457;BME280;61691;53.072;6.582;2023-07-31T12:24:07;100305.16;;;21.71;78.77
73457;BME280;61691;53.072;6.582;2023-07-31T12:26:34;100312.47;;;21.64;78.41
73457;BME280;61691;53.072;6.582;2023-07-31T12:29:01;100330.53;;;21.63;78.37
73457;BME280;61691;53.072;6.582;2023-07-31T12:31:28;100339.88;;;21.61;78.42
73457;BME280;61691;53.072;6.582;2023-07-31T12:33:56;100313.91;;;21.35;78.00
73457;BME280;61691;53.072;6.582;2023-07-31T12:36:23;100337.97;;;21.37;77.92
73457;BME280;61691;53.072;6.582;2023-07-31T12:38:51;100348.81;;;21.23;77.52
73457;BME280;61691;53.072;6.582;2023-07-31T12:41:18;100340.59;;;21.05;77.45
73457;BME280;61691;53.072;6.582;2023-07-31T12:43:45;100354.50;;;21.02;77.93
73457;BME280;61691;53.072;6.582;2023-07-31T12:46:12;100325.00;;;20.69;77.46
73457;BME280;61691;53.072;6.582;2023-07-31T12:48:40;100349.03;;;20.71;78.04
73457;BME280;61691;53.072;6.582;2023-07-31T12:51:07;100348.03;;;20.59;77.92
73457;BME280;61691;53.072;6.582;2023-07-31T12:53:34;100353.22;;;20.47;78.04
73457;BME280;61691;53.072;6.582;2023-07-31T12:56:02;100338.75;;;20.28;78.18
73457;BME280;61691;53.072;6.582;2023-07-31T12:58:29;100344.56;;;20.25;78.42
73457;BME280;61691;53.072;6.582;2023-07-31T13:00:56;100338.75;;;20.08;78.69
73457;BME280;61691;53.072;6.582;2023-07-31T13:03:23;100348.28;;;20.11;78.76